createdAt,value
2022-08-17T00:01:51.379Z,51.57
2022-08-17T00:04:19.465Z,51.42
2022-08-17T00:06:42.963Z,51.56
2022-08-17T00:09:10.079Z,51.61
2022-08-17T00:11:43.858Z,51.71
2022-08-17T00:14:27.102Z,51.72
2022-08-17T00:16:56.834Z,51.86
2022-08-17T00:19:23.098Z,51.60
2022-08-17T00:22:28.658Z,51.77
2022-08-17T00:24:31.023Z,51.68
2022-08-17T00:26:55.716Z,51.70
2022-08-17T00:29:19.629Z,51.55
2022-08-17T00:31:43.281Z,51.46
2022-08-17T00:34:08.807Z,51.50
2022-08-17T00:36:32.156Z,51.62
2022-08-17T00:38:55.543Z,51.65
2022-08-17T00:41:19.825Z,51.75
2022-08-17T00:43:46.719Z,52.09
2022-08-17T00:46:11.888Z,52.41
2022-08-17T00:48:35.436Z,52.86
2022-08-17T00:51:01.176Z,53.05
2022-08-17T00:53:24.677Z,53.50
2022-08-17T00:55:47.987Z,53.58
2022-08-17T00:58:11.254Z,54.19
2022-08-17T01:00:38.303Z,53.93
2022-08-17T01:03:03.162Z,53.94
2022-08-17T01:05:27.575Z,54.32
2022-08-17T01:07:52.186Z,54.41
2022-08-17T01:10:58.843Z,54.72
2022-08-17T01:12:58.728Z,55.43
2022-08-17T01:15:22.009Z,55.45
2022-08-17T01:17:47.100Z,55.68
2022-08-17T01:20:10.734Z,55.79
2022-08-17T01:22:35.375Z,55.16
2022-08-17T01:25:00.129Z,55.13
2022-08-17T01:27:23.384Z,54.59
2022-08-17T01:29:59.952Z,54.35
2022-08-17T01:32:23.309Z,53.97
2022-08-17T01:34:50.530Z,53.95
2022-08-17T01:37:14.521Z,54.41
2022-08-17T01:39:41.292Z,54.33
2022-08-17T01:42:06.769Z,54.92
2022-08-17T01:44:30.074Z,55.16
2022-08-17T01:46:53.575Z,55.36
2022-08-17T01:49:17.638Z,55.13
2022-08-17T01:51:41.477Z,55.30
2022-08-17T01:54:06.384Z,54.91
2022-08-17T01:56:31.078Z,54.77
2022-08-17T01:58:54.397Z,54.79
2022-08-17T02:01:17.891Z,54.64
2022-08-17T02:03:41.308Z,54.68
2022-08-17T02:06:27.595Z,55.16
2022-08-17T02:09:02.708Z,55.23
2022-08-17T02:11:26.706Z,55.33
2022-08-17T02:13:55.134Z,55.20
2022-08-17T02:16:25.639Z,54.78
2022-08-17T02:18:48.888Z,55.19
2022-08-17T02:21:12.157Z,55.48
2022-08-17T02:23:37.158Z,55.35
2022-08-17T02:26:00.721Z,55.17
2022-08-17T02:28:23.973Z,55.15
2022-08-17T02:31:01.181Z,55.51
2022-08-17T02:33:41.555Z,55.40
2022-08-17T02:36:05.803Z,55.58
2022-08-17T02:38:29.150Z,55.37
2022-08-17T02:40:52.337Z,54.95
2022-08-17T02:43:15.735Z,55.05
2022-08-17T02:45:38.998Z,54.87
2022-08-17T02:48:04.146Z,54.45
2022-08-17T02:50:27.378Z,54.30
2022-08-17T02:52:57.345Z,54.54
2022-08-17T02:55:26.469Z,54.71
2022-08-17T02:57:49.633Z,54.62
2022-08-17T03:00:18.077Z,54.40
2022-08-17T03:02:41.626Z,55.02
2022-08-17T03:05:07.273Z,54.90
2022-08-17T03:07:31.855Z,55.13
2022-08-17T03:09:55.518Z,54.84
2022-08-17T03:12:19.328Z,54.47
2022-08-17T03:14:42.852Z,54.15
2022-08-17T03:17:06.289Z,53.99
2022-08-17T03:19:29.620Z,53.54
2022-08-17T03:21:55.034Z,53.32
2022-08-17T03:24:18.806Z,52.69
2022-08-17T03:26:42.884Z,52.78
2022-08-17T03:29:06.242Z,53.09
2022-08-17T03:31:29.545Z,53.16
2022-08-17T03:33:52.874Z,52.78
2022-08-17T03:36:16.128Z,52.16
2022-08-17T03:38:40.817Z,52.42
2022-08-17T03:41:06.193Z,52.56
2022-08-17T03:43:31.832Z,52.55
2022-08-17T03:46:28.123Z,52.96
2022-08-17T03:49:12.732Z,52.88
2022-08-17T03:51:53.545Z,53.72
2022-08-17T03:54:35.799Z,54.67
2022-08-17T03:57:02.189Z,54.62
2022-08-17T03:59:25.454Z,54.99
2022-08-17T04:01:50.375Z,54.16
2022-08-17T04:04:16.401Z,53.98
2022-08-17T04:06:39.814Z,53.92
2022-08-17T04:09:03.022Z,53.80
2022-08-17T04:11:27.705Z,53.19
2022-08-17T04:13:51.054Z,53.00
2022-08-17T04:16:14.279Z,52.69
2022-08-17T04:18:37.546Z,52.93
2022-08-17T04:21:00.762Z,52.33
2022-08-17T04:23:28.274Z,52.16
2022-08-17T04:25:51.767Z,51.89
2022-08-17T04:28:16.582Z,51.38
2022-08-17T04:30:39.998Z,51.46
2022-08-17T04:33:10.022Z,51.22
2022-08-17T04:35:34.399Z,51.14
2022-08-17T04:37:58.034Z,51.17
2022-08-17T04:40:39.091Z,50.56
2022-08-17T04:43:03.671Z,50.63
2022-08-17T04:45:31.999Z,51.13
2022-08-17T04:47:55.401Z,51.11
2022-08-17T04:50:18.895Z,51.16
2022-08-17T04:52:46.685Z,51.19
2022-08-17T04:55:10.603Z,50.45
2022-08-17T04:57:39.388Z,50.76
2022-08-17T05:00:06.300Z,50.74
2022-08-17T05:02:32.103Z,50.89
2022-08-17T05:04:55.401Z,51.09
2022-08-17T05:07:23.070Z,51.18
2022-08-17T05:09:47.358Z,51.66
2022-08-17T05:12:10.727Z,51.47
2022-08-17T05:14:34.065Z,51.39
2022-08-17T05:16:57.389Z,51.27
2022-08-17T05:19:22.111Z,51.16
2022-08-17T05:21:45.649Z,51.02
2022-08-17T05:24:17.638Z,51.33
2022-08-17T05:26:52.391Z,51.16
2022-08-17T05:29:15.639Z,51.12
2022-08-17T05:31:39.021Z,51.24
2022-08-17T05:34:02.308Z,51.20
2022-08-17T05:36:42.266Z,51.45
2022-08-17T05:39:07.638Z,51.37
2022-08-17T05:41:30.857Z,51.61
2022-08-17T05:43:56.504Z,51.58
2022-08-17T05:46:21.542Z,51.59
2022-08-17T05:48:46.595Z,51.66
2022-08-17T05:51:37.594Z,52.13
2022-08-17T05:54:08.608Z,52.14
2022-08-17T05:56:39.461Z,51.69
2022-08-17T05:59:05.018Z,51.79
2022-08-17T06:01:36.392Z,51.47
2022-08-17T06:04:04.132Z,51.49
2022-08-17T06:06:35.496Z,51.53
2022-08-17T06:09:07.394Z,51.32
2022-08-17T06:11:35.323Z,51.08
2022-08-17T06:14:15.514Z,51.25
2022-08-17T06:16:40.155Z,51.17
2022-08-17T06:19:04.903Z,50.80
2022-08-17T06:21:31.965Z,50.66
2022-08-17T06:23:59.570Z,50.74
2022-08-17T06:26:27.489Z,50.58
2022-08-17T06:28:59.811Z,50.71
2022-08-17T06:31:29.320Z,50.67
2022-08-17T06:33:52.588Z,50.71
2022-08-17T06:36:26.474Z,50.35
2022-08-17T06:38:53.813Z,50.04
2022-08-17T06:41:19.782Z,50.41
2022-08-17T06:43:54.311Z,50.19
2022-08-17T06:46:20.841Z,50.33
2022-08-17T06:48:46.812Z,50.19
2022-08-17T06:51:15.541Z,50.40
2022-08-17T06:53:42.099Z,50.51
2022-08-17T06:56:07.318Z,50.25
2022-08-17T06:58:33.309Z,50.28
2022-08-17T07:00:59.145Z,49.95
2022-08-17T07:03:30.199Z,49.60
2022-08-17T07:05:54.325Z,49.33
2022-08-17T07:08:19.262Z,49.41
2022-08-17T07:10:46.007Z,49.68
2022-08-17T07:13:18.582Z,49.65
2022-08-17T07:15:43.662Z,50.14
2022-08-17T07:18:06.975Z,50.17
2022-08-17T07:20:31.319Z,50.09
2022-08-17T07:23:00.300Z,50.07
2022-08-17T07:25:24.011Z,50.04
2022-08-17T07:27:51.254Z,50.19
2022-08-17T07:30:17.667Z,50.23
2022-08-17T07:32:45.283Z,50.29
2022-08-17T07:35:15.515Z,50.46
2022-08-17T07:37:40.141Z,50.35
2022-08-17T07:40:15.965Z,50.42
2022-08-17T07:42:44.922Z,50.38
2022-08-17T07:45:31.245Z,50.40
2022-08-17T07:48:21.649Z,50.45
2022-08-17T07:50:49.711Z,50.42
2022-08-17T07:53:17.899Z,50.22
2022-08-17T07:55:41.918Z,50.44
2022-08-17T07:58:05.581Z,50.52
2022-08-17T08:00:32.031Z,50.60
2022-08-17T08:03:13.312Z,50.60
2022-08-17T08:05:50.178Z,50.44
2022-08-17T08:08:22.589Z,50.61
2022-08-17T08:10:47.269Z,50.87
2022-08-17T08:13:12.178Z,50.64
2022-08-17T08:15:39.562Z,50.89
2022-08-17T08:18:38.683Z,50.80
2022-08-17T08:21:09.567Z,50.94
2022-08-17T08:23:44.602Z,50.03
2022-08-17T08:26:18.561Z,47.85
2022-08-17T08:28:46.244Z,46.34
2022-08-17T08:31:13.012Z,45.71
2022-08-17T08:33:46.873Z,46.17
2022-08-17T08:37:14.974Z,47.31
2022-08-17T08:39:02.217Z,46.96
2022-08-17T08:41:31.659Z,47.41
2022-08-17T08:44:05.078Z,46.85
2022-08-17T08:46:31.140Z,46.35
2022-08-17T08:49:12.655Z,46.07
2022-08-17T08:51:42.021Z,45.86
2022-08-17T08:54:09.733Z,46.56
2022-08-17T08:56:36.484Z,44.75
2022-08-17T08:59:03.245Z,44.84
2022-08-17T09:01:29.508Z,44.88
2022-08-17T09:04:25.203Z,45.05
2022-08-17T09:06:52.074Z,45.42
2022-08-17T09:09:20.340Z,45.38
2022-08-17T09:12:01.313Z,45.83
2022-08-17T09:14:29.377Z,46.02
2022-08-17T09:16:58.996Z,45.97
2022-08-17T09:19:30.068Z,45.90
2022-08-17T09:21:55.119Z,46.13
2022-08-17T09:24:22.937Z,46.25
2022-08-17T09:26:49.322Z,46.20
2022-08-17T09:29:15.350Z,46.35
2022-08-17T09:31:48.724Z,46.24
2022-08-17T09:34:14.270Z,46.36
2022-08-17T09:36:42.532Z,46.35
2022-08-17T09:39:08.630Z,46.57
2022-08-17T09:41:35.159Z,46.41
2022-08-17T09:44:01.499Z,46.56
2022-08-17T09:46:27.750Z,46.55
2022-08-17T09:48:55.313Z,46.70
2022-08-17T09:51:21.647Z,46.63
2022-08-17T09:53:46.260Z,46.61
2022-08-17T09:56:34.970Z,46.67
2022-08-17T09:59:20.176Z,46.48
2022-08-17T10:01:45.881Z,46.07
2022-08-17T10:04:20.315Z,45.87
2022-08-17T10:06:47.744Z,45.73
2022-08-17T10:09:15.615Z,45.81
2022-08-17T10:11:58.608Z,45.29
2022-08-17T10:14:37.517Z,44.82
2022-08-17T10:17:14.788Z,43.69
2022-08-17T10:19:44.155Z,42.96
2022-08-17T10:22:35.525Z,42.39
2022-08-17T10:25:22.720Z,42.72
2022-08-17T10:27:51.704Z,42.50
2022-08-17T10:30:15.064Z,42.49
2022-08-17T10:32:40.835Z,42.87
2022-08-17T10:35:13.194Z,42.49
2022-08-17T10:38:05.015Z,42.03
2022-08-17T10:40:36.431Z,42.59
2022-08-17T10:43:01.730Z,42.37
2022-08-17T10:45:27.058Z,42.47
2022-08-17T10:48:05.030Z,42.53
2022-08-17T10:50:50.438Z,42.23
2022-08-17T10:53:35.982Z,41.98
2022-08-17T10:56:21.838Z,42.15
2022-08-17T10:58:47.420Z,42.04
2022-08-17T11:01:12.868Z,42.14
2022-08-17T11:03:36.309Z,41.92
2022-08-17T11:06:03.756Z,41.94
2022-08-17T11:08:56.639Z,41.87
2022-08-17T11:11:34.516Z,41.61
2022-08-17T11:14:07.636Z,41.32
2022-08-17T11:16:38.295Z,41.59
2022-08-17T11:19:34.685Z,41.39
2022-08-17T11:22:12.936Z,41.12
2022-08-17T11:24:36.531Z,42.12
2022-08-17T11:27:07.675Z,43.14
2022-08-17T11:29:38.841Z,43.81
2022-08-17T11:32:05.827Z,44.47
2022-08-17T11:34:29.267Z,44.53
2022-08-17T11:37:21.963Z,45.40
2022-08-17T11:40:14.269Z,45.60
2022-08-17T11:42:51.428Z,46.80
2022-08-17T11:45:43.466Z,47.07
2022-08-17T11:48:31.860Z,47.88
2022-08-17T11:51:13.304Z,48.44
2022-08-17T11:56:53.760Z,49.07
2022-08-17T11:59:58.512Z,49.08
2022-08-17T12:02:38.781Z,50.13
2022-08-17T12:05:14.120Z,50.36
2022-08-17T12:07:42.541Z,50.95
2022-08-17T12:10:06.224Z,51.66
2022-08-17T12:12:33.445Z,51.93
2022-08-17T12:15:10.160Z,53.62
2022-08-17T12:17:40.815Z,53.91
2022-08-17T12:20:17.211Z,53.12
2022-08-17T12:22:44.484Z,56.09
2022-08-17T12:25:11.090Z,55.76
2022-08-17T12:28:04.349Z,55.28
2022-08-17T12:30:21.236Z,54.64
2022-08-17T12:32:47.703Z,55.33
2022-08-17T12:35:20.598Z,55.64
2022-08-17T12:37:46.780Z,55.63
2022-08-17T12:40:20.103Z,55.65
2022-08-17T12:42:54.573Z,55.34
2022-08-17T12:45:24.967Z,54.88
2022-08-17T12:47:48.319Z,54.39
2022-08-17T12:50:28.477Z,54.41
2022-08-17T12:52:59.663Z,54.41
2022-08-17T12:55:26.285Z,54.28
2022-08-17T12:57:58.084Z,54.02
2022-08-17T13:00:28.521Z,53.94
2022-08-17T13:02:53.252Z,54.23
2022-08-17T13:05:27.714Z,54.15
2022-08-17T13:07:53.177Z,53.97
2022-08-17T13:10:22.641Z,53.80
2022-08-17T13:12:45.929Z,53.75
2022-08-17T13:15:10.218Z,53.62
2022-08-17T13:17:36.106Z,53.78
2022-08-17T13:19:59.376Z,53.55
2022-08-17T13:22:23.879Z,53.32
2022-08-17T13:24:53.174Z,52.94
2022-08-17T13:27:17.680Z,52.99
2022-08-17T13:29:41.481Z,53.02
2022-08-17T13:32:16.783Z,52.83
2022-08-17T13:35:12.390Z,53.00
2022-08-17T13:37:32.736Z,52.51
2022-08-17T13:39:56.127Z,52.20
2022-08-17T13:42:51.880Z,52.07
2022-08-17T13:45:43.546Z,51.74
2022-08-17T13:48:12.352Z,51.59
2022-08-17T13:50:40.187Z,51.24
2022-08-17T13:53:03.466Z,50.77
2022-08-17T13:55:26.771Z,50.66
2022-08-17T13:58:03.639Z,50.95
2022-08-17T14:00:32.796Z,50.81
2022-08-17T14:02:56.075Z,50.79
2022-08-17T14:05:19.527Z,51.01
2022-08-17T14:07:44.402Z,50.99
2022-08-17T14:10:11.212Z,50.31
2022-08-17T14:12:35.188Z,49.69
2022-08-17T14:14:58.924Z,48.60
2022-08-17T14:17:22.894Z,48.11
2022-08-17T14:19:46.173Z,48.33
2022-08-17T14:22:12.163Z,48.01
2022-08-17T14:24:44.668Z,47.89
2022-08-17T14:27:09.094Z,47.07
2022-08-17T14:29:33.331Z,46.93
2022-08-17T14:31:56.622Z,46.95
2022-08-17T14:34:19.937Z,46.88
2022-08-17T14:36:45.487Z,46.95
2022-08-17T14:39:11.858Z,46.67
2022-08-17T14:41:36.931Z,46.63
2022-08-17T14:44:01.530Z,46.76
2022-08-17T14:46:26.530Z,46.63
2022-08-17T14:48:57.194Z,47.19
2022-08-17T14:51:21.967Z,47.68
2022-08-17T14:53:45.869Z,47.90
2022-08-17T14:56:09.229Z,48.22
2022-08-17T14:58:33.867Z,48.07
2022-08-17T15:00:57.267Z,47.88
2022-08-17T15:03:20.660Z,47.63
2022-08-17T15:05:45.519Z,48.03
2022-08-17T15:08:08.874Z,47.84
2022-08-17T15:10:32.259Z,47.42
2022-08-17T15:12:56.220Z,47.22
2022-08-17T15:15:21.170Z,47.15
2022-08-17T15:17:54.721Z,46.89
2022-08-17T15:20:18.934Z,46.72
2022-08-17T15:22:42.365Z,46.86
2022-08-17T15:25:06.670Z,47.31
2022-08-17T15:27:32.490Z,47.32
2022-08-17T15:29:56.260Z,47.71
2022-08-17T15:32:28.133Z,47.78
2022-08-17T15:34:51.501Z,47.97
2022-08-17T15:37:14.768Z,48.22
2022-08-17T15:39:38.101Z,48.43
2022-08-17T15:42:04.645Z,48.31
2022-08-17T15:44:32.669Z,48.45
2022-08-17T15:46:59.103Z,48.42
2022-08-17T15:49:23.678Z,48.55
2022-08-17T15:51:47.007Z,48.43
2022-08-17T15:54:19.226Z,48.50
2022-08-17T15:56:46.193Z,48.61
2022-08-17T15:59:09.762Z,48.79
2022-08-17T16:02:20.012Z,49.00
2022-08-17T16:04:30.382Z,49.49
2022-08-17T16:06:55.805Z,49.69
2022-08-17T16:09:19.064Z,50.29
2022-08-17T16:11:45.981Z,49.97
2022-08-17T16:14:17.023Z,50.51
2022-08-17T16:16:41.833Z,50.86
2022-08-17T16:19:05.200Z,50.83
2022-08-17T16:21:31.313Z,51.17
2022-08-17T16:24:13.139Z,51.41
2022-08-17T16:26:37.345Z,51.66
2022-08-17T16:29:01.147Z,51.69
2022-08-17T16:31:24.674Z,51.98
2022-08-17T16:34:03.817Z,51.59
2022-08-17T16:36:31.561Z,51.88
2022-08-17T16:38:54.795Z,51.88
2022-08-17T16:41:33.347Z,51.89
2022-08-17T16:43:56.959Z,52.20
2022-08-17T16:46:20.277Z,51.93
2022-08-17T16:48:44.527Z,52.05
2022-08-17T16:51:08.463Z,52.40
2022-08-17T16:53:31.789Z,52.21
2022-08-17T16:55:56.587Z,52.52
2022-08-17T16:58:21.278Z,52.42
2022-08-17T17:00:45.277Z,53.56
2022-08-17T17:03:19.865Z,53.10
2022-08-17T17:05:57.612Z,53.00
2022-08-17T17:08:25.659Z,52.94
2022-08-17T17:10:51.292Z,53.07
2022-08-17T17:13:15.788Z,52.98
2022-08-17T17:15:55.061Z,53.49
2022-08-17T17:18:18.478Z,54.03
2022-08-17T17:20:47.601Z,53.41
2022-08-17T17:23:14.412Z,54.35
2022-08-17T17:25:40.664Z,54.39
2022-08-17T17:28:09.314Z,54.18
2022-08-17T17:30:36.369Z,54.67
2022-08-17T17:33:04.674Z,55.32
2022-08-17T17:35:31.774Z,57.00
2022-08-17T17:37:57.389Z,56.55
2022-08-17T17:40:23.153Z,55.80
2022-08-17T17:42:46.745Z,55.91
2022-08-17T17:45:16.979Z,55.18
2022-08-17T17:47:40.339Z,55.72
2022-08-17T17:50:06.292Z,56.32
2022-08-17T17:52:36.247Z,57.02
2022-08-17T17:55:05.414Z,57.37
2022-08-17T17:57:34.823Z,57.28
2022-08-17T18:00:01.922Z,56.99
2022-08-17T18:02:51.485Z,56.77
2022-08-17T18:05:23.182Z,56.75
2022-08-17T18:07:50.631Z,56.46
2022-08-17T18:10:19.716Z,56.22
2022-08-17T18:12:55.322Z,56.05
2022-08-17T18:15:23.441Z,56.14
2022-08-17T18:18:02.138Z,55.86
2022-08-17T18:20:36.458Z,56.40
2022-08-17T18:23:06.944Z,56.46
2022-08-17T18:25:48.926Z,56.26
2022-08-17T18:28:23.037Z,56.11
2022-08-17T18:30:48.473Z,56.11
2022-08-17T18:33:22.969Z,55.69
2022-08-17T18:35:58.902Z,55.62
2022-08-17T18:38:29.917Z,54.69
2022-08-17T18:41:06.050Z,53.74
2022-08-17T18:43:44.181Z,53.37
2022-08-17T18:46:29.888Z,53.84
2022-08-17T18:48:54.948Z,54.04
2022-08-17T18:51:37.266Z,53.93
2022-08-17T18:54:08.019Z,53.45
2022-08-17T18:56:32.024Z,52.91
2022-08-17T18:59:02.104Z,52.98
2022-08-17T19:01:46.904Z,53.40
2022-08-17T19:04:11.979Z,53.54
2022-08-17T19:06:36.736Z,53.80
2022-08-17T19:09:00.719Z,54.39
2022-08-17T19:11:26.382Z,54.72
2022-08-17T19:13:54.271Z,54.75
2022-08-17T19:16:20.117Z,54.44
2022-08-17T19:18:45.888Z,54.44
2022-08-17T19:21:11.161Z,54.04
2022-08-17T19:23:38.884Z,54.68
2022-08-17T19:26:51.209Z,55.07
2022-08-17T19:29:08.199Z,55.95
2022-08-17T19:31:33.021Z,55.55
2022-08-17T19:33:56.378Z,55.36
2022-08-17T19:36:34.559Z,54.99
2022-08-17T19:39:03.426Z,55.03
2022-08-17T19:41:29.366Z,54.69
2022-08-17T19:44:07.101Z,54.98
2022-08-17T19:46:35.780Z,55.02
2022-08-17T19:49:03.850Z,55.35
2022-08-17T19:51:30.439Z,54.79
2022-08-17T19:54:06.039Z,54.55
2022-08-17T19:56:34.918Z,54.16
2022-08-17T19:59:01.208Z,54.48
2022-08-17T20:01:34.418Z,54.46
2022-08-17T20:03:59.335Z,54.32
2022-08-17T20:06:22.637Z,54.42
2022-08-17T20:08:49.991Z,53.66
2022-08-17T20:11:16.698Z,54.46
2022-08-17T20:13:42.950Z,54.60
2022-08-17T20:16:06.496Z,54.32
2022-08-17T20:18:38.064Z,54.07
2022-08-17T20:21:20.257Z,54.10
2022-08-17T20:23:50.509Z,54.65
2022-08-17T20:26:19.521Z,54.53
2022-08-17T20:29:10.554Z,54.70
2022-08-17T20:31:42.646Z,55.39
2022-08-17T20:34:37.061Z,55.26
2022-08-17T20:37:02.722Z,55.29
2022-08-17T20:39:31.727Z,55.33
2022-08-17T20:42:09.966Z,55.50
2022-08-17T20:44:35.140Z,55.57
2022-08-17T20:46:59.611Z,55.58
2022-08-17T20:49:27.086Z,55.98
2022-08-17T20:52:01.779Z,56.14
2022-08-17T20:54:44.315Z,55.99
2022-08-17T20:57:14.039Z,55.88
2022-08-17T21:00:04.408Z,56.59
2022-08-17T21:02:28.999Z,56.94
2022-08-17T21:05:30.217Z,56.77
2022-08-17T21:07:55.904Z,56.77
2022-08-17T21:10:20.388Z,57.33
2022-08-17T21:12:44.739Z,57.23
2022-08-17T21:15:09.600Z,57.26
2022-08-17T21:17:44.739Z,57.47
2022-08-17T21:20:14.575Z,57.63
2022-08-17T21:22:44.185Z,57.65
2022-08-17T21:25:14.816Z,57.40
2022-08-17T21:27:42.102Z,57.40
2022-08-17T21:30:32.284Z,57.65
2022-08-17T21:33:20.262Z,57.82
2022-08-17T21:35:48.525Z,57.92
2022-08-17T21:38:13.858Z,58.50
2022-08-17T21:40:37.193Z,58.98
2022-08-17T21:43:08.418Z,58.85
2022-08-17T21:45:35.588Z,58.91
2022-08-17T21:48:11.067Z,59.00
2022-08-17T21:50:34.306Z,59.33
2022-08-17T21:52:57.673Z,58.83
2022-08-17T21:55:23.046Z,58.39
2022-08-17T21:58:13.540Z,57.76
2022-08-17T22:00:32.706Z,57.66
2022-08-17T22:02:57.189Z,58.32
2022-08-17T22:05:28.486Z,58.98
2022-08-17T22:07:52.720Z,59.07
2022-08-17T22:10:30.856Z,58.86
2022-08-17T22:13:03.425Z,59.26
2022-08-17T22:15:26.718Z,59.60
2022-08-17T22:17:51.422Z,59.42
2022-08-17T22:20:16.841Z,59.70
2022-08-17T22:22:54.953Z,59.82
2022-08-17T22:25:21.609Z,59.78
2022-08-17T22:27:46.729Z,59.87
2022-08-17T22:30:17.723Z,60.36
2022-08-17T22:32:42.793Z,60.01
2022-08-17T22:35:26.468Z,60.17
2022-08-17T22:37:49.914Z,60.16
2022-08-17T22:40:13.384Z,59.83
2022-08-17T22:42:36.969Z,59.18
2022-08-17T22:45:00.224Z,59.19
2022-08-17T22:47:30.508Z,59.13
2022-08-17T22:49:57.484Z,59.01
2022-08-17T22:52:32.560Z,59.82
2022-08-17T22:55:20.338Z,60.16
2022-08-17T22:58:04.979Z,59.63
2022-08-17T23:00:29.103Z,60.31
2022-08-17T23:03:15.967Z,60.02
2022-08-17T23:05:41.978Z,60.19
2022-08-17T23:08:06.760Z,59.82
2022-08-17T23:10:30.197Z,60.12
2022-08-17T23:12:53.465Z,60.12
2022-08-17T23:15:18.616Z,59.91
2022-08-17T23:17:42.077Z,60.64
2022-08-17T23:20:08.322Z,60.37
2022-08-17T23:22:31.755Z,59.99
2022-08-17T23:24:58.591Z,60.06
2022-08-17T23:27:22.208Z,60.05
2022-08-17T23:29:47.121Z,60.33
2022-08-17T23:32:11.715Z,60.42
2022-08-17T23:34:35.186Z,60.52
2022-08-17T23:36:58.479Z,60.87
2022-08-17T23:39:24.651Z,60.08
2022-08-17T23:41:53.482Z,60.47
2022-08-17T23:44:16.753Z,60.30
2022-08-17T23:46:40.716Z,60.16
2022-08-17T23:49:03.934Z,60.22
2022-08-17T23:51:28.973Z,60.68
2022-08-17T23:53:53.832Z,60.44
2022-08-17T23:56:21.176Z,60.06
2022-08-17T23:58:45.967Z,59.46
